Time;durP1;ratioP1;P1;durP2;ratioP2;P2;SDS_P1;SDS_P2;PMS_P1;PMS_P2;Temp;Humidity;BMP_temperature;BMP_pressure;BME280_temperature;BME280_humidity;BME280_pressure;Samples;Min_cycle;Max_cycle;Signal;HPM_P1;HPM_P2
2020/12/05 00:01:01;;;;;;;29.48;12.55;;;4.60;99.90;;;;;;5037651;28;20689;-76
2020/12/05 00:03:28;;;;;;;24.58;11.95;;;4.70;99.90;;;;;;5037094;28;20198;-78
2020/12/05 00:05:54;;;;;;;24.38;12.63;;;4.80;99.90;;;;;;5034941;28;20196;-78
2020/12/05 00:08:21;;;;;;;25.63;11.32;;;4.90;99.90;;;;;;5034951;28;20666;-77
2020/12/05 00:10:47;;;;;;;22.05;12.70;;;4.80;99.90;;;;;;5034794;28;20721;-78
2020/12/05 00:13:14;;;;;;;18.58;10.77;;;4.70;99.90;;;;;;5035107;28;20654;-78
2020/12/05 00:15:40;;;;;;;22.90;11.27;;;4.90;99.90;;;;;;5035006;28;20193;-78
2020/12/05 00:18:06;;;;;;;23.67;11.73;;;5.00;99.90;;;;;;5035064;28;20276;-79
2020/12/05 00:20:34;;;;;;;24.33;12.60;;;5.10;99.90;;;;;;5034615;28;20589;-78
2020/12/05 00:23:00;;;;;;;23.58;11.70;;;5.20;99.90;;;;;;5035588;28;20200;-78
2020/12/05 00:25:26;;;;;;;21.20;10.85;;;5.10;99.90;;;;;;5034975;28;20287;-78
2020/12/05 00:27:53;;;;;;;18.20;10.55;;;5.00;99.90;;;;;;5034794;28;20200;-78
2020/12/05 00:30:19;;;;;;;28.27;12.27;;;5.00;99.90;;;;;;5034732;28;20291;-79
2020/12/05 00:32:45;;;;;;;21.60;10.75;;;4.80;99.90;;;;;;5034329;28;20219;-79
2020/12/05 00:35:12;;;;;;;23.63;11.43;;;4.70;99.90;;;;;;5034359;28;20677;-78
2020/12/05 00:37:39;;;;;;;13.15;8.90;;;4.60;99.90;;;;;;5034151;28;20643;-79
2020/12/05 00:40:05;;;;;;;21.08;10.38;;;4.60;99.90;;;;;;5034123;28;20203;-77
2020/12/05 00:42:31;;;;;;;19.05;10.25;;;4.80;99.90;;;;;;5033902;28;20223;-76
2020/12/05 00:44:58;;;;;;;18.02;10.40;;;4.70;99.90;;;;;;5033946;28;20202;-78
2020/12/05 00:47:28;;;;;;;20.42;9.77;;;4.60;99.90;;;;;;5034396;28;20578;-78
2020/12/05 00:49:54;;;;;;;17.48;9.88;;;4.70;99.90;;;;;;5034296;28;20642;-79
2020/12/05 00:52:22;;;;;;;22.35;10.57;;;4.90;99.90;;;;;;5034711;28;20212;-77
2020/12/05 00:54:49;;;;;;;23.38;10.85;;;4.90;99.90;;;;;;5031863;28;20599;-80
2020/12/05 00:57:16;;;;;;;19.00;10.52;;;5.00;99.90;;;;;;5033945;28;20196;-77
2020/12/05 00:59:42;;;;;;;24.13;11.43;;;5.10;99.90;;;;;;5033954;28;20192;-79
2020/12/05 01:02:08;;;;;;;20.80;10.43;;;5.10;99.90;;;;;;5033447;28;20250;-79
2020/12/05 01:04:35;;;;;;;20.67;9.50;;;5.00;99.90;;;;;;5033407;28;20741;-79
2020/12/05 01:07:01;;;;;;;22.02;10.05;;;5.00;99.90;;;;;;5034085;28;20290;-76
2020/12/05 01:09:27;;;;;;;22.02;10.55;;;5.10;99.90;;;;;;5035028;28;20554;-77
2020/12/05 01:11:54;;;;;;;23.33;10.55;;;5.10;99.90;;;;;;5034062;28;20212;-76
2020/12/05 01:14:21;;;;;;;18.30;10.45;;;5.20;99.90;;;;;;5034980;28;20206;-77
2020/12/05 01:16:47;;;;;;;21.75;10.15;;;5.20;99.90;;;;;;5035271;28;20203;-76
2020/12/05 01:19:13;;;;;;;21.65;10.13;;;5.30;99.90;;;;;;5034065;28;20200;-77
2020/12/05 01:21:40;;;;;;;19.30;9.93;;;5.40;99.90;;;;;;5034428;28;20219;-77
2020/12/05 01:24:06;;;;;;;18.90;9.65;;;5.40;99.90;;;;;;5035352;28;20192;-77
2020/12/05 01:26:32;;;;;;;23.52;11.43;;;5.50;99.90;;;;;;5034009;28;20204;-77
2020/12/05 01:28:59;;;;;;;21.50;10.20;;;5.50;99.90;;;;;;5035378;28;20568;-78
2020/12/05 01:31:26;;;;;;;21.63;10.13;;;5.40;99.90;;;;;;5035008;28;20246;-77
2020/12/05 01:33:52;;;;;;;19.42;10.55;;;5.30;99.90;;;;;;5035982;28;20199;-77
2020/12/05 01:36:18;;;;;;;20.08;9.85;;;5.20;99.90;;;;;;5034427;28;20200;-78
2020/12/05 01:38:45;;;;;;;18.15;10.43;;;5.10;99.90;;;;;;5033836;28;20204;-78
2020/12/05 01:41:11;;;;;;;23.58;10.50;;;4.90;99.90;;;;;;5034151;28;20230;-77
2020/12/05 01:43:40;;;;;;;19.30;10.10;;;4.80;99.90;;;;;;5034835;28;20239;-77
2020/12/05 01:46:07;;;;;;;16.35;9.65;;;4.90;99.90;;;;;;5034521;28;20254;-77
2020/12/05 01:48:35;;;;;;;18.65;10.77;;;5.00;99.90;;;;;;5034492;28;20631;-77
2020/12/05 01:51:01;;;;;;;18.63;10.48;;;5.00;99.90;;;;;;5034593;28;20246;-79
2020/12/05 01:53:28;;;;;;;18.48;10.80;;;5.00;99.90;;;;;;5034056;28;20202;-77
2020/12/05 01:55:54;;;;;;;23.70;12.05;;;5.10;99.90;;;;;;5032814;28;20684;-79
2020/12/05 01:58:21;;;;;;;25.92;10.80;;;4.90;99.90;;;;;;5033195;28;20210;-76
2020/12/05 02:00:47;;;;;;;23.13;10.25;;;4.70;99.90;;;;;;5032510;28;20227;-76
2020/12/05 02:03:15;;;;;;;26.05;10.93;;;4.60;99.90;;;;;;5032571;28;20287;-75
2020/12/05 02:05:54;;;;;;;20.42;9.90;;;4.50;99.90;;;;;;5032462;28;20573;-76
2020/12/05 02:08:28;;;;;;;18.50;9.85;;;4.70;99.90;;;;;;5033628;28;20214;-75
2020/12/05 02:10:55;;;;;;;21.00;10.60;;;4.90;99.90;;;;;;5032204;28;20235;-77
2020/12/05 02:13:28;;;;;;;17.30;10.65;;;4.90;99.90;;;;;;5034259;28;20204;-75
2020/12/05 02:15:56;;;;;;;29.60;11.98;;;4.90;99.90;;;;;;5030562;28;20207;-76
2020/12/05 02:18:24;;;;;;;19.38;10.40;;;4.70;99.90;;;;;;5032899;28;20287;-76
2020/12/05 02:20:53;;;;;;;21.77;11.55;;;4.50;99.90;;;;;;5032276;28;20228;-76
2020/12/05 02:23:20;;;;;;;27.02;11.57;;;4.60;99.90;;;;;;5034135;28;20203;-74
2020/12/05 02:25:50;;;;;;;27.15;10.52;;;4.70;99.90;;;;;;5033891;28;20212;-73
2020/12/05 02:28:18;;;;;;;19.95;10.23;;;4.90;99.90;;;;;;5034662;28;20214;-73
2020/12/05 02:30:44;;;;;;;21.80;11.00;;;5.00;99.90;;;;;;5034365;28;20682;-73
2020/12/05 02:33:10;;;;;;;19.67;9.73;;;5.00;99.90;;;;;;5035150;28;20192;-73
2020/12/05 02:35:37;;;;;;;20.77;9.30;;;4.90;99.90;;;;;;5034468;28;20204;-73
2020/12/05 02:38:08;;;;;;;20.67;10.10;;;5.00;99.90;;;;;;5035103;28;20210;-73
2020/12/05 02:40:35;;;;;;;15.38;8.57;;;5.10;99.90;;;;;;5034771;28;20200;-73
2020/12/05 02:43:02;;;;;;;14.93;7.93;;;5.00;99.90;;;;;;5035460;28;20207;-73
2020/12/05 02:45:28;;;;;;;13.07;6.43;;;4.90;99.90;;;;;;5034546;28;20295;-73
2020/12/05 02:47:55;;;;;;;14.57;7.38;;;5.10;99.90;;;;;;5035170;28;20207;-73
2020/12/05 02:50:21;;;;;;;17.02;6.85;;;5.20;99.90;;;;;;5035788;28;20203;-73
2020/12/05 02:52:48;;;;;;;11.05;6.43;;;5.20;99.90;;;;;;5034349;28;20315;-73
2020/12/05 02:55:14;;;;;;;13.18;5.97;;;5.30;99.90;;;;;;5034501;28;20208;-73
2020/12/05 02:57:41;;;;;;;10.02;6.90;;;5.30;99.90;;;;;;5035466;28;20208;-73
2020/12/05 03:00:07;;;;;;;9.13;4.85;;;5.30;99.90;;;;;;5034873;28;20200;-73
2020/12/05 03:02:34;;;;;;;9.35;6.05;;;5.20;99.90;;;;;;5035415;28;20235;-73
2020/12/05 03:05:00;;;;;;;12.50;5.47;;;5.20;99.90;;;;;;5035306;28;20214;-73
2020/12/05 03:07:26;;;;;;;8.35;5.28;;;5.10;99.90;;;;;;5035087;28;20208;-73
2020/12/05 03:09:53;;;;;;;6.50;4.50;;;5.20;99.90;;;;;;5034949;28;20200;-74
2020/12/05 03:12:19;;;;;;;9.20;5.53;;;5.10;99.90;;;;;;5034866;28;20224;-73
2020/12/05 03:14:46;;;;;;;8.27;5.25;;;5.10;99.90;;;;;;5034748;28;20212;-73
2020/12/05 03:17:12;;;;;;;10.68;5.88;;;5.10;99.90;;;;;;5035043;28;20204;-73
2020/12/05 03:19:39;;;;;;;7.97;5.25;;;5.10;99.90;;;;;;5035185;28;20208;-73
2020/12/05 03:22:05;;;;;;;10.43;5.60;;;5.10;99.90;;;;;;5034443;28;20238;-73
2020/12/05 03:24:32;;;;;;;9.05;5.63;;;4.90;99.90;;;;;;5034203;28;20204;-73
2020/12/05 03:26:58;;;;;;;8.25;5.32;;;4.80;99.90;;;;;;5034616;28;20651;-73
2020/12/05 03:29:25;;;;;;;12.93;5.70;;;4.50;99.90;;;;;;5034910;28;20293;-73
2020/12/05 03:31:54;;;;;;;11.15;5.40;;;4.50;99.90;;;;;;5034082;28;20268;-73
2020/12/05 03:34:21;;;;;;;7.65;5.55;;;4.40;99.90;;;;;;5038590;28;20215;-73
2020/12/05 03:36:47;;;;;;;9.98;5.10;;;4.30;99.90;;;;;;5038389;28;20291;-73
2020/12/05 03:39:14;;;;;;;11.93;6.00;;;4.20;99.90;;;;;;5038112;28;20548;-73
2020/12/05 03:41:41;;;;;;;9.20;5.40;;;4.00;99.90;;;;;;5038141;28;20259;-73
2020/12/05 03:44:07;;;;;;;9.23;6.00;;;3.90;99.90;;;;;;5038188;28;20210;-73
2020/12/05 03:46:34;;;;;;;9.90;4.57;;;3.70;99.90;;;;;;5038254;28;20654;-73
2020/12/05 03:49:01;;;;;;;11.05;5.18;;;3.60;99.90;;;;;;5037841;28;20674;-73
2020/12/05 03:51:28;;;;;;;12.23;5.45;;;3.40;99.90;;;;;;5038361;28;20220;-73
2020/12/05 03:53:54;;;;;;;10.15;5.10;;;3.20;99.90;;;;;;5038671;28;20204;-72
2020/12/05 03:56:21;;;;;;;7.35;4.45;;;3.10;99.90;;;;;;5038002;28;20210;-73
2020/12/05 03:58:47;;;;;;;11.13;5.00;;;3.10;99.90;;;;;;5037846;28;20611;-73
2020/12/05 04:01:16;;;;;;;9.90;5.38;;;3.20;99.90;;;;;;5037790;28;20319;-73
2020/12/05 04:03:43;;;;;;;12.77;5.28;;;3.10;99.90;;;;;;5037836;28;20222;-73
2020/12/05 04:06:12;;;;;;;14.20;5.78;;;3.10;99.90;;;;;;5037362;28;20204;-73
2020/12/05 04:08:38;;;;;;;6.78;4.30;;;3.10;99.90;;;;;;5036562;28;20204;-73
2020/12/05 04:11:06;;;;;;;10.35;4.90;;;3.20;99.90;;;;;;5037538;28;20246;-73
2020/12/05 04:13:32;;;;;;;7.28;4.95;;;3.30;99.90;;;;;;5036691;28;20744;-73
2020/12/05 04:15:58;;;;;;;6.75;4.32;;;3.50;99.90;;;;;;5036905;28;20295;-73
2020/12/05 04:18:25;;;;;;;7.78;4.80;;;3.70;99.90;;;;;;5037308;28;20208;-73
2020/12/05 04:20:51;;;;;;;7.75;4.80;;;3.70;99.90;;;;;;5036836;28;20230;-73
2020/12/05 04:23:18;;;;;;;10.15;4.95;;;3.80;99.90;;;;;;5037136;28;20211;-73
2020/12/05 04:25:44;;;;;;;10.52;5.03;;;3.90;99.90;;;;;;5036815;28;20208;-73
2020/12/05 04:28:11;;;;;;;15.15;6.75;;;4.10;99.90;;;;;;5037865;28;20662;-73
2020/12/05 04:30:37;;;;;;;9.88;4.22;;;4.10;99.90;;;;;;5037604;28;20210;-73
2020/12/05 04:33:04;;;;;;;8.23;5.60;;;4.30;99.90;;;;;;5037824;28;20196;-73
2020/12/05 04:35:30;;;;;;;10.18;5.43;;;4.30;99.90;;;;;;5037853;28;20241;-73
2020/12/05 04:37:56;;;;;;;9.05;5.00;;;4.30;99.90;;;;;;5038202;28;20223;-73
2020/12/05 04:40:24;;;;;;;11.32;5.45;;;4.40;99.90;;;;;;5038254;28;20208;-73
2020/12/05 04:42:50;;;;;;;15.00;7.00;;;4.30;99.90;;;;;;5038563;28;20239;-73
2020/12/05 04:45:17;;;;;;;13.82;6.70;;;4.40;99.90;;;;;;5036583;28;20200;-72
2020/12/05 04:47:45;;;;;;;14.10;7.43;;;4.50;99.90;;;;;;5037143;28;20207;-73
2020/12/05 04:50:12;;;;;;;11.77;6.55;;;4.60;99.90;;;;;;5037394;28;20204;-73
2020/12/05 04:52:48;;;;;;;10.27;6.18;;;4.60;99.90;;;;;;5038332;28;20226;-73
2020/12/05 04:55:15;;;;;;;13.00;6.60;;;4.60;99.90;;;;;;5037614;28;20203;-73
2020/12/05 04:57:46;;;;;;;10.35;5.63;;;4.70;99.90;;;;;;5038396;28;20201;-73
2020/12/05 05:00:13;;;;;;;11.48;5.50;;;4.70;99.90;;;;;;5037874;28;20200;-73
2020/12/05 05:02:42;;;;;;;11.23;5.20;;;4.70;99.90;;;;;;5037471;28;20234;-73
2020/12/05 05:05:10;;;;;;;10.48;5.93;;;4.70;99.90;;;;;;5037329;28;20204;-73
2020/12/05 05:07:46;;;;;;;10.18;5.07;;;4.60;99.90;;;;;;5038564;28;20200;-73
2020/12/05 05:10:18;;;;;;;7.50;5.05;;;4.50;99.90;;;;;;5038178;28;20200;-73
2020/12/05 05:12:45;;;;;;;9.43;4.63;;;4.40;99.90;;;;;;5038179;28;20220;-73
2020/12/05 05:15:28;;;;;;;12.68;5.70;;;4.40;99.90;;;;;;5036177;28;20204;-73
2020/12/05 05:17:55;;;;;;;9.20;4.72;;;4.40;99.90;;;;;;5036937;28;20200;-73
2020/12/05 05:20:22;;;;;;;7.97;5.55;;;4.60;99.90;;;;;;5036562;28;20204;-73
2020/12/05 05:22:50;;;;;;;11.38;5.40;;;4.60;99.90;;;;;;5035787;28;20705;-73
2020/12/05 05:25:17;;;;;;;7.25;3.95;;;4.60;99.90;;;;;;5036420;28;20204;-73
2020/12/05 05:27:58;;;;;;;7.55;4.30;;;4.40;99.90;;;;;;5036062;28;20200;-73
2020/12/05 05:30:24;;;;;;;7.10;4.03;;;4.20;99.90;;;;;;5036463;28;20290;-73
2020/12/05 05:32:53;;;;;;;7.90;4.60;;;4.10;99.90;;;;;;5036269;28;20228;-73
2020/12/05 05:35:19;;;;;;;9.63;5.07;;;4.00;99.90;;;;;;5036217;28;20239;-73
2020/12/05 05:37:45;;;;;;;10.18;5.10;;;4.20;99.90;;;;;;5036561;28;20210;-73
2020/12/05 05:40:13;;;;;;;8.10;4.68;;;4.10;99.90;;;;;;5036006;28;20199;-73
2020/12/05 05:42:41;;;;;;;13.00;5.95;;;4.00;99.90;;;;;;5035567;28;20224;-72
2020/12/05 05:45:19;;;;;;;9.50;5.68;;;3.90;99.90;;;;;;5035445;28;20207;-73
2020/12/05 05:47:47;;;;;;;11.23;5.60;;;4.00;99.90;;;;;;5034901;28;20619;-73
2020/12/05 05:50:25;;;;;;;8.63;5.40;;;3.90;99.90;;;;;;5034461;28;20214;-73
2020/12/05 05:52:57;;;;;;;9.18;5.32;;;3.70;99.90;;;;;;5034646;28;20219;-73
2020/12/05 05:55:42;;;;;;;13.18;6.22;;;3.60;99.90;;;;;;5033864;28;20701;-73
2020/12/05 05:58:09;;;;;;;10.82;5.80;;;3.50;99.90;;;;;;5034779;28;20654;-73
2020/12/05 06:00:39;;;;;;;10.50;5.90;;;3.60;99.90;;;;;;5034651;28;20239;-73
2020/12/05 06:03:17;;;;;;;15.00;6.30;;;3.70;99.90;;;;;;5035064;28;20231;-73
2020/12/05 06:05:46;;;;;;;11.20;7.03;;;3.70;99.90;;;;;;5034713;28;20354;-73
2020/12/05 06:08:16;;;;;;;8.45;6.00;;;3.70;99.90;;;;;;5034503;28;20204;-73
2020/12/05 06:10:47;;;;;;;15.30;5.97;;;3.70;99.90;;;;;;5034702;28;20203;-73
2020/12/05 06:13:18;;;;;;;14.85;6.82;;;3.60;99.90;;;;;;5034258;28;20275;-72
2020/12/05 06:15:46;;;;;;;9.02;5.70;;;3.40;99.90;;;;;;5034590;28;20207;-73
2020/12/05 06:18:14;;;;;;;9.95;6.25;;;3.30;99.90;;;;;;5034033;28;20200;-72
2020/12/05 06:20:44;;;;;;;10.30;5.82;;;3.30;99.90;;;;;;5033695;28;20675;-73
2020/12/05 06:23:19;;;;;;;11.02;6.03;;;3.20;99.90;;;;;;5034533;28;20697;-73
2020/12/05 06:25:52;;;;;;;8.02;5.07;;;3.30;99.90;;;;;;5033907;28;20208;-73
2020/12/05 06:28:20;;;;;;;11.55;6.00;;;3.20;99.90;;;;;;5034020;28;20200;-73
2020/12/05 06:30:47;;;;;;;7.95;4.47;;;3.20;99.90;;;;;;5034228;28;20666;-73
2020/12/05 06:33:46;;;;;;;8.10;4.80;;;3.20;99.90;;;;;;5034699;28;20195;-72
2020/12/05 06:36:48;;;;;;;7.10;4.80;;;3.40;99.90;;;;;;5034806;28;20246;-72
2020/12/05 06:39:17;;;;;;;7.10;4.35;;;3.50;99.90;;;;;;5013437;28;20219;-73
2020/12/05 06:41:49;;;;;;;8.68;5.13;;;3.60;99.90;;;;;;5012306;28;20324;-73
2020/12/05 06:44:17;;;;;;;15.52;6.00;;;3.80;99.90;;;;;;5023924;28;20212;-73
2020/12/05 06:46:54;;;;;;;12.57;5.78;;;3.80;99.90;;;;;;5034646;28;20204;-73
2020/12/05 06:49:50;;;;;;;8.57;4.78;;;3.90;99.90;;;;;;5034985;28;20574;-73
2020/12/05 06:52:40;;;;;;;10.05;5.95;;;4.00;99.90;;;;;;5035064;28;20781;-73
2020/12/05 06:55:12;;;;;;;8.13;6.22;;;4.10;99.90;;;;;;5035204;28;20250;-73
2020/12/05 06:57:41;;;;;;;11.30;6.03;;;4.20;99.90;;;;;;5035925;28;20617;-73
2020/12/05 07:00:16;;;;;;;10.82;5.05;;;4.30;99.90;;;;;;5034510;28;20668;-73
2020/12/05 07:02:51;;;;;;;9.95;4.50;;;4.20;99.90;;;;;;5035105;28;20223;-73
2020/12/05 07:05:29;;;;;;;5.22;3.67;;;4.10;99.90;;;;;;5034793;28;20204;-73
2020/12/05 07:07:56;;;;;;;4.47;3.30;;;4.00;99.90;;;;;;5036612;28;20210;-73
2020/12/05 07:10:43;;;;;;;7.95;3.42;;;4.10;99.90;;;;;;5038619;28;20210;-73
2020/12/05 07:13:14;;;;;;;5.20;3.45;;;4.00;99.90;;;;;;5038962;28;20619;-73
2020/12/05 07:15:40;;;;;;;3.65;2.70;;;4.00;99.90;;;;;;5038018;28;20243;-73
2020/12/05 07:18:09;;;;;;;3.15;2.08;;;4.00;99.90;;;;;;5038069;28;20204;-73
2020/12/05 07:20:35;;;;;;;4.78;3.00;;;3.90;99.90;;;;;;5037642;28;20303;-73
2020/12/05 07:23:03;;;;;;;4.80;3.17;;;3.80;99.90;;;;;;5037887;28;20682;-73
2020/12/05 07:25:29;;;;;;;4.40;2.80;;;3.80;99.90;;;;;;5037247;28;20684;-73
2020/12/05 07:27:56;;;;;;;5.47;2.85;;;3.80;99.90;;;;;;5037387;28;20229;-73
2020/12/05 07:30:22;;;;;;;3.65;2.35;;;3.80;99.90;;;;;;5037547;28;20295;-73
2020/12/05 07:32:50;;;;;;;2.88;2.08;;;3.70;99.90;;;;;;5037756;28;20235;-73
2020/12/05 07:35:17;;;;;;;3.78;2.40;;;3.90;99.90;;;;;;5038146;28;20294;-73
2020/12/05 07:37:44;;;;;;;3.35;2.20;;;4.10;99.90;;;;;;5038540;28;20717;-73
2020/12/05 07:40:10;;;;;;;5.18;2.70;;;4.20;99.90;;;;;;5038440;28;20214;-73
2020/12/05 07:42:39;;;;;;;4.80;2.78;;;4.30;99.90;;;;;;5038052;28;20224;-73
2020/12/05 07:45:06;;;;;;;3.75;2.60;;;4.50;99.90;;;;;;5037818;28;20210;-73
2020/12/05 07:47:33;;;;;;;2.92;2.28;;;4.60;99.90;;;;;;5038602;28;20206;-73
2020/12/05 07:50:01;;;;;;;3.53;2.05;;;4.50;99.90;;;;;;5037269;28;20204;-73
2020/12/05 07:52:28;;;;;;;4.03;2.60;;;4.20;99.90;;;;;;5036802;28;20268;-73
2020/12/05 07:54:56;;;;;;;6.90;3.88;;;4.10;99.90;;;;;;5037457;28;20200;-73
2020/12/05 07:57:26;;;;;;;11.65;5.00;;;4.10;99.90;;;;;;5038391;28;20206;-73
2020/12/05 08:00:01;;;;;;;9.82;4.20;;;4.20;99.90;;;;;;5038501;28;20287;-73
2020/12/05 08:02:41;;;;;;;8.93;4.43;;;4.40;99.90;;;;;;5038726;28;20614;-73
2020/12/05 08:05:11;;;;;;;5.15;3.30;;;4.60;99.90;;;;;;5038284;28;20203;-73
2020/12/05 08:07:41;;;;;;;7.72;4.70;;;4.50;99.90;;;;;;5037964;28;20208;-73
2020/12/05 08:10:10;;;;;;;9.07;4.93;;;4.50;99.90;;;;;;5037828;28;20215;-73
2020/12/05 08:13:14;;;;;;;9.20;4.60;;;4.30;99.90;;;;;;5037690;28;20227;-73
2020/12/05 08:15:41;;;;;;;7.88;4.97;;;4.10;99.90;;;;;;5036429;28;20214;-73
2020/12/05 08:18:08;;;;;;;12.50;4.20;;;4.00;99.90;;;;;;5036085;28;20204;-72
2020/12/05 08:20:42;;;;;;;9.38;4.65;;;3.80;99.90;;;;;;5036448;28;20549;-73
2020/12/05 08:23:19;;;;;;;8.95;3.83;;;3.80;99.90;;;;;;5037383;28;20286;-73
2020/12/05 08:25:48;;;;;;;5.88;3.65;;;3.90;99.90;;;;;;5036655;28;20225;-73
2020/12/05 08:28:14;;;;;;;6.25;3.55;;;3.90;99.90;;;;;;5036796;28;20211;-73
2020/12/05 08:30:41;;;;;;;3.35;2.70;;;4.00;99.90;;;;;;5037213;28;20212;-73
2020/12/05 08:33:07;;;;;;;6.20;3.50;;;4.10;99.90;;;;;;5036509;28;20275;-73
2020/12/05 08:35:34;;;;;;;5.18;3.20;;;4.30;99.90;;;;;;5036128;28;20577;-73
2020/12/05 08:38:02;;;;;;;5.20;3.50;;;4.50;99.90;;;;;;5036413;28;20204;-73
2020/12/05 08:40:30;;;;;;;8.38;3.80;;;4.60;99.90;;;;;;5036189;28;20566;-73
2020/12/05 08:42:57;;;;;;;6.15;3.95;;;4.60;99.90;;;;;;5035405;28;20232;-72
2020/12/05 08:45:24;;;;;;;6.50;3.83;;;4.80;99.90;;;;;;5035736;28;20200;-73
2020/12/05 08:47:52;;;;;;;6.45;3.20;;;5.00;99.90;;;;;;5035916;28;20208;-73
2020/12/05 08:50:23;;;;;;;6.25;3.65;;;5.00;99.90;;;;;;5035896;28;20559;-73
2020/12/05 08:52:53;;;;;;;6.85;3.80;;;5.10;99.90;;;;;;5036209;28;20222;-72
2020/12/05 08:55:22;;;;;;;6.57;4.13;;;5.10;99.90;;;;;;5035668;28;20203;-73
2020/12/05 08:57:58;;;;;;;4.68;3.30;;;5.00;99.90;;;;;;5035596;28;20200;-72
2020/12/05 09:00:25;;;;;;;4.10;2.92;;;5.00;99.90;;;;;;5035577;28;20299;-72
2020/12/05 09:02:51;;;;;;;3.38;2.50;;;5.00;99.90;;;;;;5035702;28;20570;-73
2020/12/05 09:05:17;;;;;;;3.45;2.80;;;5.10;99.90;;;;;;5035398;28;20214;-73
2020/12/05 09:07:55;;;;;;;2.88;2.63;;;5.20;99.90;;;;;;5035358;28;20212;-73
2020/12/05 09:10:22;;;;;;;3.70;2.88;;;5.40;99.90;;;;;;5035513;28;20204;-72
2020/12/05 09:12:49;;;;;;;3.95;3.20;;;5.40;99.90;;;;;;5035485;28;20686;-72
2020/12/05 09:15:19;;;;;;;5.40;3.30;;;5.60;99.90;;;;;;5035210;28;20204;-73
2020/12/05 09:17:45;;;;;;;5.45;3.13;;;5.50;99.90;;;;;;5035142;28;20200;-73
2020/12/05 09:20:19;;;;;;;6.03;4.22;;;5.40;99.90;;;;;;5035534;28;20200;-72
2020/12/05 09:22:47;;;;;;;6.32;3.78;;;5.40;99.90;;;;;;5034744;28;20613;-73
2020/12/05 09:25:25;;;;;;;6.13;3.85;;;5.30;99.90;;;;;;5034910;28;20207;-73
2020/12/05 09:27:52;;;;;;;10.75;3.70;;;5.40;99.90;;;;;;5035277;28;20212;-73
2020/12/05 09:30:21;;;;;;;6.25;4.38;;;5.30;99.90;;;;;;5034552;28;20204;-73
2020/12/05 09:32:48;;;;;;;5.57;3.85;;;5.30;99.90;;;;;;5034425;28;20324;-72
2020/12/05 09:35:17;;;;;;;9.02;4.30;;;5.40;99.90;;;;;;5034671;28;20207;-72
2020/12/05 09:37:44;;;;;;;7.30;5.15;;;5.40;99.90;;;;;;5034742;28;20207;-73
2020/12/05 09:40:12;;;;;;;8.35;4.50;;;5.50;99.90;;;;;;5034667;28;20222;-73
2020/12/05 09:42:39;;;;;;;10.30;5.55;;;5.60;99.90;;;;;;5035050;28;20224;-72
2020/12/05 09:45:07;;;;;;;8.35;5.53;;;5.70;99.90;;;;;;5034655;28;20211;-73
2020/12/05 09:47:34;;;;;;;8.68;5.03;;;5.70;99.90;;;;;;5034486;28;20258;-73
2020/12/05 09:50:01;;;;;;;9.05;5.80;;;5.70;99.90;;;;;;5034692;28;20214;-73
2020/12/05 09:52:27;;;;;;;8.18;5.00;;;5.70;99.90;;;;;;5034766;28;20314;-73
2020/12/05 09:54:54;;;;;;;9.05;5.75;;;5.70;99.90;;;;;;5034361;28;20206;-72
2020/12/05 09:57:20;;;;;;;8.73;4.80;;;5.70;99.90;;;;;;5034778;28;20620;-72
2020/12/05 09:59:47;;;;;;;7.90;4.82;;;5.80;99.90;;;;;;5034685;28;20207;-73
2020/12/05 10:02:13;;;;;;;8.45;5.20;;;5.80;99.90;;;;;;5034435;28;20228;-73
2020/12/05 10:04:40;;;;;;;8.18;5.15;;;5.80;99.90;;;;;;5034643;28;20204;-73
2020/12/05 10:07:07;;;;;;;8.57;5.35;;;5.80;99.90;;;;;;5034508;28;20200;-72
2020/12/05 10:09:34;;;;;;;10.18;5.38;;;5.80;99.90;;;;;;5034894;28;20200;-73
2020/12/05 10:12:01;;;;;;;6.70;4.60;;;5.90;99.90;;;;;;5034667;28;20223;-73
2020/12/05 10:14:27;;;;;;;6.57;4.75;;;5.90;99.90;;;;;;5035054;28;20206;-73
2020/12/05 10:16:53;;;;;;;7.20;5.05;;;6.00;99.90;;;;;;5033842;28;20547;-73
2020/12/05 10:19:20;;;;;;;7.00;4.18;;;6.00;99.90;;;;;;5034190;28;20294;-73
2020/12/05 10:21:47;;;;;;;6.60;4.60;;;6.00;99.90;;;;;;5034134;28;20220;-73
2020/12/05 10:24:14;;;;;;;8.77;5.00;;;6.00;99.90;;;;;;5034226;28;20209;-72
2020/12/05 10:26:41;;;;;;;8.07;5.10;;;6.10;99.90;;;;;;5034120;28;20203;-72
2020/12/05 10:29:07;;;;;;;11.85;6.97;;;6.20;99.90;;;;;;5033989;28;20215;-73
2020/12/05 10:31:33;;;;;;;7.50;4.30;;;6.30;99.90;;;;;;5033553;28;20235;-73
2020/12/05 10:34:00;;;;;;;8.95;5.20;;;6.20;99.90;;;;;;5033937;28;20200;-72
2020/12/05 10:36:26;;;;;;;6.38;4.43;;;6.20;99.90;;;;;;5033819;28;20208;-73
2020/12/05 10:38:53;;;;;;;7.18;4.53;;;6.30;99.90;;;;;;5033836;28;20685;-73
2020/12/05 10:41:19;;;;;;;5.78;4.80;;;6.20;99.90;;;;;;5034716;28;20232;-73
2020/12/05 10:43:46;;;;;;;6.25;4.40;;;6.20;99.90;;;;;;5038153;28;20223;-73
2020/12/05 10:46:12;;;;;;;9.75;5.72;;;6.20;99.90;;;;;;5037592;28;20222;-73
2020/12/05 10:48:38;;;;;;;8.38;5.30;;;6.20;99.90;;;;;;5037943;28;20210;-73
2020/12/05 10:51:05;;;;;;;10.52;6.47;;;6.20;99.90;;;;;;5037995;28;20231;-73
2020/12/05 10:53:31;;;;;;;11.30;6.60;;;6.10;99.90;;;;;;5038692;28;20214;-73
2020/12/05 10:55:58;;;;;;;10.57;6.25;;;6.20;99.90;;;;;;5037794;28;20206;-73
2020/12/05 10:58:24;;;;;;;11.40;5.70;;;6.00;99.90;;;;;;5038104;28;20210;-73
2020/12/05 11:00:51;;;;;;;9.00;5.75;;;5.90;99.90;;;;;;5037778;28;20211;-73
2020/12/05 11:03:17;;;;;;;9.02;5.65;;;5.80;99.90;;;;;;5037876;28;20237;-73
2020/12/05 11:05:43;;;;;;;11.70;6.68;;;5.60;99.90;;;;;;5037656;28;20210;-73
2020/12/05 11:08:09;;;;;;;9.05;5.28;;;5.50;99.90;;;;;;5037755;28;20204;-73
2020/12/05 11:10:36;;;;;;;8.23;5.80;;;5.30;99.90;;;;;;5037835;28;20210;-70
2020/12/05 11:13:03;;;;;;;6.22;5.20;;;5.30;99.90;;;;;;5037643;28;20202;-73
2020/12/05 11:15:29;;;;;;;6.85;4.75;;;5.50;99.90;;;;;;5037829;28;20204;-73
2020/12/05 11:17:55;;;;;;;11.23;5.97;;;5.70;99.90;;;;;;5037757;28;20204;-73
2020/12/05 11:20:22;;;;;;;8.98;6.10;;;5.70;99.90;;;;;;5038094;28;20200;-73
2020/12/05 11:22:48;;;;;;;9.10;5.43;;;5.70;99.90;;;;;;5038283;28;20223;-73
2020/12/05 11:25:15;;;;;;;12.57;6.50;;;5.60;99.90;;;;;;5038105;28;20260;-73
2020/12/05 11:27:41;;;;;;;12.38;7.18;;;5.80;99.90;;;;;;5037930;28;20204;-73
2020/12/05 11:30:08;;;;;;;9.48;6.65;;;5.80;99.90;;;;;;5037879;28;20200;-73
2020/12/05 11:32:37;;;;;;;11.80;6.72;;;5.90;99.90;;;;;;5037658;28;20644;-73
2020/12/05 11:35:04;;;;;;;13.57;7.75;;;5.90;99.90;;;;;;5037871;28;20231;-73
2020/12/05 11:37:30;;;;;;;11.40;7.53;;;5.90;99.90;;;;;;5038250;28;20206;-73
2020/12/05 11:39:56;;;;;;;12.23;6.78;;;5.90;99.90;;;;;;5037826;28;20258;-73
2020/12/05 11:42:23;;;;;;;11.77;7.28;;;5.90;99.90;;;;;;5037527;28;20663;-73
2020/12/05 11:44:49;;;;;;;11.45;7.60;;;5.80;99.90;;;;;;5037725;28;20211;-69
2020/12/05 11:47:16;;;;;;;13.15;7.70;;;6.00;99.90;;;;;;5037248;28;20208;-72
2020/12/05 11:49:43;;;;;;;8.82;6.40;;;6.10;99.90;;;;;;5037291;28;20200;-72
2020/12/05 11:52:09;;;;;;;12.48;7.15;;;6.30;99.90;;;;;;5036835;28;20223;-72
2020/12/05 11:54:35;;;;;;;12.68;8.32;;;6.20;99.90;;;;;;5035984;28;20208;-74
2020/12/05 11:57:02;;;;;;;12.75;7.80;;;6.10;99.90;;;;;;5037365;28;20200;-76
2020/12/05 11:59:28;;;;;;;12.65;7.00;;;6.00;99.90;;;;;;5037873;28;20203;-75
2020/12/05 12:01:54;;;;;;;12.38;7.47;;;6.00;99.90;;;;;;5037496;28;20230;-76
2020/12/05 12:04:21;;;;;;;14.63;7.63;;;6.00;99.90;;;;;;5037354;28;20663;-76
2020/12/05 12:06:48;;;;;;;12.57;6.90;;;6.10;99.90;;;;;;5037840;28;20214;-78
2020/12/05 12:09:15;;;;;;;13.05;8.32;;;6.10;99.90;;;;;;5039809;28;20211;-75
2020/12/05 12:11:41;;;;;;;11.68;6.75;;;6.10;99.90;;;;;;5037854;28;20231;-75
2020/12/05 12:14:07;;;;;;;25.70;7.93;;;6.10;99.90;;;;;;5036649;28;20206;-76
2020/12/05 12:16:34;;;;;;;10.88;7.65;;;6.20;99.90;;;;;;5037312;28;20207;-70
2020/12/05 12:19:00;;;;;;;13.73;8.70;;;6.40;99.90;;;;;;5036062;28;20425;-72
2020/12/05 12:21:27;;;;;;;13.52;9.30;;;6.40;99.90;;;;;;5035936;28;20444;-75
2020/12/05 12:23:54;;;;;;;11.90;8.65;;;6.50;99.90;;;;;;5036009;28;20527;-72
2020/12/05 12:26:20;;;;;;;10.15;7.43;;;6.70;99.90;;;;;;5038058;28;20555;-78
2020/12/05 12:28:46;;;;;;;12.00;7.18;;;6.80;99.90;;;;;;5038451;28;20725;-78
2020/12/05 12:31:12;;;;;;;11.30;6.38;;;6.80;99.90;;;;;;5038452;28;20314;-78
2020/12/05 12:33:39;;;;;;;12.13;6.50;;;6.70;99.90;;;;;;5040224;28;20206;-78
2020/12/05 12:36:06;;;;;;;7.82;5.53;;;6.60;99.90;;;;;;5038249;28;20331;-77
2020/12/05 12:38:33;;;;;;;9.20;6.15;;;6.40;99.90;;;;;;5038985;28;20210;-77
2020/12/05 12:40:59;;;;;;;9.68;5.75;;;6.40;99.90;;;;;;5039008;28;20733;-78
2020/12/05 12:43:25;;;;;;;10.15;5.90;;;6.50;99.90;;;;;;5039360;28;20227;-78
2020/12/05 12:45:52;;;;;;;11.70;6.40;;;6.40;99.90;;;;;;5038686;28;20219;-78
2020/12/05 12:51:02;;;;;;;9.15;6.00;;;6.20;99.90;;;;;;5039773;28;20218;-78
2020/12/05 12:53:30;;;;;;;13.85;7.63;;;6.20;99.90;;;;;;5039567;28;20204;-77
2020/12/05 12:55:57;;;;;;;10.75;6.90;;;6.20;99.90;;;;;;5039067;28;20228;-78
2020/12/05 12:58:31;;;;;;;11.68;6.55;;;6.30;99.90;;;;;;5039733;28;20666;-78